sensor_id;sensor_type;location;lat;lon;timestamp;P1;durP1;ratioP1;P2;durP2;ratioP2
72676;SDS011;60755;51.374;10.662;2022-07-09T00:01:59;4.60;;;4.03;;
72676;SDS011;60755;51.374;10.662;2022-07-09T00:04:25;4.70;;;4.40;;
72676;SDS011;60755;51.374;10.662;2022-07-09T00:06:53;4.40;;;4.00;;
72676;SDS011;60755;51.374;10.662;2022-07-09T00:09:19;4.17;;;3.83;;
72676;SDS011;60755;51.374;10.662;2022-07-09T00:11:45;3.75;;;3.55;;
72676;SDS011;60755;51.374;10.662;2022-07-09T00:14:12;3.90;;;3.70;;
72676;SDS011;60755;51.374;10.662;2022-07-09T00:16:38;7.57;;;4.00;;
72676;SDS011;60755;51.374;10.662;2022-07-09T00:19:05;6.73;;;3.90;;
72676;SDS011;60755;51.374;10.662;2022-07-09T00:21:31;4.03;;;3.63;;
72676;SDS011;60755;51.374;10.662;2022-07-09T00:23:59;4.30;;;4.00;;
72676;SDS011;60755;51.374;10.662;2022-07-09T00:26:25;4.27;;;3.97;;
72676;SDS011;60755;51.374;10.662;2022-07-09T00:28:52;5.10;;;4.17;;
72676;SDS011;60755;51.374;10.662;2022-07-09T00:31:18;4.27;;;3.87;;
72676;SDS011;60755;51.374;10.662;2022-07-09T00:33:44;3.97;;;3.77;;
72676;SDS011;60755;51.374;10.662;2022-07-09T00:36:11;3.93;;;3.63;;
72676;SDS011;60755;51.374;10.662;2022-07-09T00:38:37;4.30;;;3.90;;
72676;SDS011;60755;51.374;10.662;2022-07-09T00:41:05;4.30;;;3.90;;
72676;SDS011;60755;51.374;10.662;2022-07-09T00:43:32;5.27;;;4.53;;
72676;SDS011;60755;51.374;10.662;2022-07-09T00:45:58;5.97;;;4.53;;
72676;SDS011;60755;51.374;10.662;2022-07-09T00:48:25;6.83;;;4.03;;
72676;SDS011;60755;51.374;10.662;2022-07-09T00:50:51;10.27;;;4.60;;
72676;SDS011;60755;51.374;10.662;2022-07-09T00:53:20;4.00;;;3.70;;
72676;SDS011;60755;51.374;10.662;2022-07-09T00:55:49;4.43;;;4.03;;
72676;SDS011;60755;51.374;10.662;2022-07-09T00:58:18;4.80;;;4.00;;
72676;SDS011;60755;51.374;10.662;2022-07-09T01:00:46;5.90;;;4.50;;
72676;SDS011;60755;51.374;10.662;2022-07-09T01:03:13;4.40;;;4.10;;
72676;SDS011;60755;51.374;10.662;2022-07-09T01:05:39;7.65;;;4.43;;
72676;SDS011;60755;51.374;10.662;2022-07-09T01:08:07;4.37;;;3.97;;
72676;SDS011;60755;51.374;10.662;2022-07-09T01:10:35;4.20;;;3.83;;
72676;SDS011;60755;51.374;10.662;2022-07-09T01:13:02;5.60;;;4.40;;
72676;SDS011;60755;51.374;10.662;2022-07-09T01:15:30;5.87;;;4.23;;
72676;SDS011;60755;51.374;10.662;2022-07-09T01:17:57;4.43;;;4.10;;
72676;SDS011;60755;51.374;10.662;2022-07-09T01:20:25;4.47;;;4.23;;
72676;SDS011;60755;51.374;10.662;2022-07-09T01:22:54;5.00;;;4.50;;
72676;SDS011;60755;51.374;10.662;2022-07-09T01:25:20;4.47;;;4.17;;
72676;SDS011;60755;51.374;10.662;2022-07-09T01:27:53;7.53;;;4.50;;
72676;SDS011;60755;51.374;10.662;2022-07-09T01:30:23;5.43;;;4.97;;
72676;SDS011;60755;51.374;10.662;2022-07-09T01:32:51;5.67;;;4.90;;
72676;SDS011;60755;51.374;10.662;2022-07-09T01:35:17;6.37;;;5.03;;
72676;SDS011;60755;51.374;10.662;2022-07-09T01:37:45;5.27;;;4.83;;
72676;SDS011;60755;51.374;10.662;2022-07-09T01:40:12;6.10;;;4.90;;
72676;SDS011;60755;51.374;10.662;2022-07-09T01:42:38;6.37;;;5.47;;
72676;SDS011;60755;51.374;10.662;2022-07-09T01:45:06;8.00;;;5.03;;
72676;SDS011;60755;51.374;10.662;2022-07-09T01:47:32;6.13;;;4.63;;
72676;SDS011;60755;51.374;10.662;2022-07-09T01:49:59;5.40;;;4.97;;
72676;SDS011;60755;51.374;10.662;2022-07-09T01:52:25;5.30;;;4.50;;
72676;SDS011;60755;51.374;10.662;2022-07-09T01:54:53;4.83;;;4.33;;
72676;SDS011;60755;51.374;10.662;2022-07-09T01:57:19;5.27;;;4.30;;
72676;SDS011;60755;51.374;10.662;2022-07-09T01:59:46;4.77;;;4.37;;
72676;SDS011;60755;51.374;10.662;2022-07-09T02:02:12;6.63;;;4.80;;
72676;SDS011;60755;51.374;10.662;2022-07-09T02:04:39;6.03;;;5.20;;
72676;SDS011;60755;51.374;10.662;2022-07-09T02:07:05;7.77;;;4.77;;
72676;SDS011;60755;51.374;10.662;2022-07-09T02:09:32;14.90;;;5.53;;
72676;SDS011;60755;51.374;10.662;2022-07-09T02:11:59;7.07;;;5.67;;
72676;SDS011;60755;51.374;10.662;2022-07-09T02:14:26;8.63;;;6.00;;
72676;SDS011;60755;51.374;10.662;2022-07-09T02:16:52;7.30;;;5.47;;
72676;SDS011;60755;51.374;10.662;2022-07-09T02:19:19;6.90;;;5.20;;
72676;SDS011;60755;51.374;10.662;2022-07-09T02:21:45;6.03;;;5.43;;
72676;SDS011;60755;51.374;10.662;2022-07-09T02:24:12;7.50;;;5.53;;
72676;SDS011;60755;51.374;10.662;2022-07-09T02:26:38;6.17;;;5.23;;
72676;SDS011;60755;51.374;10.662;2022-07-09T02:29:06;5.80;;;5.30;;
72676;SDS011;60755;51.374;10.662;2022-07-09T02:31:32;5.53;;;5.00;;
72676;SDS011;60755;51.374;10.662;2022-07-09T02:33:59;6.50;;;5.20;;
72676;SDS011;60755;51.374;10.662;2022-07-09T02:36:25;6.50;;;5.10;;
72676;SDS011;60755;51.374;10.662;2022-07-09T02:38:51;4.83;;;4.43;;
72676;SDS011;60755;51.374;10.662;2022-07-09T02:41:18;9.70;;;5.50;;
72676;SDS011;60755;51.374;10.662;2022-07-09T02:43:44;5.30;;;4.73;;
72676;SDS011;60755;51.374;10.662;2022-07-09T02:46:12;7.93;;;5.87;;
72676;SDS011;60755;51.374;10.662;2022-07-09T02:48:38;6.43;;;5.30;;
72676;SDS011;60755;51.374;10.662;2022-07-09T02:51:05;7.87;;;6.10;;
72676;SDS011;60755;51.374;10.662;2022-07-09T02:53:32;7.27;;;6.40;;
72676;SDS011;60755;51.374;10.662;2022-07-09T02:55:58;6.63;;;5.97;;
72676;SDS011;60755;51.374;10.662;2022-07-09T02:58:24;6.90;;;6.00;;
72676;SDS011;60755;51.374;10.662;2022-07-09T03:00:51;6.43;;;5.77;;
72676;SDS011;60755;51.374;10.662;2022-07-09T03:03:19;6.03;;;5.43;;
72676;SDS011;60755;51.374;10.662;2022-07-09T03:05:48;6.50;;;5.30;;
72676;SDS011;60755;51.374;10.662;2022-07-09T03:08:14;6.93;;;6.33;;
72676;SDS011;60755;51.374;10.662;2022-07-09T03:10:41;10.97;;;5.37;;
72676;SDS011;60755;51.374;10.662;2022-07-09T03:13:07;6.57;;;5.07;;
72676;SDS011;60755;51.374;10.662;2022-07-09T03:15:34;8.30;;;6.03;;
72676;SDS011;60755;51.374;10.662;2022-07-09T03:18:00;10.47;;;8.63;;
72676;SDS011;60755;51.374;10.662;2022-07-09T03:20:28;7.47;;;6.10;;
72676;SDS011;60755;51.374;10.662;2022-07-09T03:22:55;10.03;;;6.80;;
72676;SDS011;60755;51.374;10.662;2022-07-09T03:25:21;8.13;;;6.20;;
72676;SDS011;60755;51.374;10.662;2022-07-09T03:27:48;7.73;;;6.90;;
72676;SDS011;60755;51.374;10.662;2022-07-09T03:30:14;8.80;;;6.40;;
72676;SDS011;60755;51.374;10.662;2022-07-09T03:32:40;11.77;;;7.53;;
72676;SDS011;60755;51.374;10.662;2022-07-09T03:35:07;9.70;;;6.27;;
72676;SDS011;60755;51.374;10.662;2022-07-09T03:37:35;9.67;;;6.30;;
72676;SDS011;60755;51.374;10.662;2022-07-09T03:40:01;8.90;;;5.70;;
72676;SDS011;60755;51.374;10.662;2022-07-09T03:42:28;7.97;;;5.87;;
72676;SDS011;60755;51.374;10.662;2022-07-09T03:44:54;7.23;;;5.20;;
72676;SDS011;60755;51.374;10.662;2022-07-09T03:47:21;5.03;;;4.40;;
72676;SDS011;60755;51.374;10.662;2022-07-09T03:49:48;8.40;;;4.60;;
72676;SDS011;60755;51.374;10.662;2022-07-09T03:52:14;6.17;;;3.40;;
72676;SDS011;60755;51.374;10.662;2022-07-09T03:54:42;3.47;;;2.53;;
72676;SDS011;60755;51.374;10.662;2022-07-09T03:57:09;3.08;;;2.88;;
72676;SDS011;60755;51.374;10.662;2022-07-09T03:59:35;4.40;;;2.60;;
72676;SDS011;60755;51.374;10.662;2022-07-09T04:02:02;3.60;;;3.28;;
72676;SDS011;60755;51.374;10.662;2022-07-09T04:04:29;3.17;;;2.50;;
72676;SDS011;60755;51.374;10.662;2022-07-09T04:06:56;3.00;;;2.60;;
72676;SDS011;60755;51.374;10.662;2022-07-09T04:09:22;3.65;;;2.90;;
72676;SDS011;60755;51.374;10.662;2022-07-09T04:11:50;3.38;;;3.05;;
72676;SDS011;60755;51.374;10.662;2022-07-09T04:14:16;4.13;;;2.90;;
72676;SDS011;60755;51.374;10.662;2022-07-09T04:16:44;3.83;;;3.30;;
72676;SDS011;60755;51.374;10.662;2022-07-09T04:19:11;3.28;;;2.97;;
72676;SDS011;60755;51.374;10.662;2022-07-09T04:21:37;4.82;;;3.30;;
72676;SDS011;60755;51.374;10.662;2022-07-09T04:24:04;8.90;;;3.55;;
72676;SDS011;60755;51.374;10.662;2022-07-09T04:26:30;3.17;;;2.90;;
72676;SDS011;60755;51.374;10.662;2022-07-09T04:28:58;4.32;;;2.95;;
72676;SDS011;60755;51.374;10.662;2022-07-09T04:31:25;5.13;;;3.22;;
72676;SDS011;60755;51.374;10.662;2022-07-09T04:33:51;3.38;;;3.10;;
72676;SDS011;60755;51.374;10.662;2022-07-09T04:36:17;3.05;;;2.95;;
72676;SDS011;60755;51.374;10.662;2022-07-09T04:38:44;2.80;;;2.60;;
72676;SDS011;60755;51.374;10.662;2022-07-09T04:41:10;4.38;;;3.35;;
72676;SDS011;60755;51.374;10.662;2022-07-09T04:43:36;3.70;;;3.40;;
72676;SDS011;60755;51.374;10.662;2022-07-09T04:46:04;3.30;;;3.00;;
72676;SDS011;60755;51.374;10.662;2022-07-09T04:48:31;4.35;;;3.53;;
72676;SDS011;60755;51.374;10.662;2022-07-09T04:50:57;4.88;;;3.80;;
72676;SDS011;60755;51.374;10.662;2022-07-09T04:53:24;4.35;;;3.70;;
72676;SDS011;60755;51.374;10.662;2022-07-09T04:55:50;4.00;;;3.70;;
72676;SDS011;60755;51.374;10.662;2022-07-09T04:58:17;3.25;;;3.00;;
72676;SDS011;60755;51.374;10.662;2022-07-09T05:00:43;6.63;;;3.60;;
72676;SDS011;60755;51.374;10.662;2022-07-09T05:03:11;3.60;;;3.30;;
72676;SDS011;60755;51.374;10.662;2022-07-09T05:05:38;3.45;;;3.17;;
72676;SDS011;60755;51.374;10.662;2022-07-09T05:08:04;4.53;;;3.63;;
72676;SDS011;60755;51.374;10.662;2022-07-09T05:10:30;4.28;;;3.88;;
72676;SDS011;60755;51.374;10.662;2022-07-09T05:12:57;8.07;;;6.70;;
72676;SDS011;60755;51.374;10.662;2022-07-09T05:15:23;19.83;;;13.07;;
72676;SDS011;60755;51.374;10.662;2022-07-09T05:17:49;5.28;;;4.80;;
72676;SDS011;60755;51.374;10.662;2022-07-09T05:20:17;6.55;;;5.03;;
72676;SDS011;60755;51.374;10.662;2022-07-09T05:22:44;6.32;;;5.72;;
72676;SDS011;60755;51.374;10.662;2022-07-09T05:25:10;5.97;;;5.20;;
72676;SDS011;60755;51.374;10.662;2022-07-09T05:27:42;7.97;;;5.47;;
72676;SDS011;60755;51.374;10.662;2022-07-09T05:30:10;9.57;;;5.18;;
72676;SDS011;60755;51.374;10.662;2022-07-09T05:32:39;7.93;;;5.10;;
72676;SDS011;60755;51.374;10.662;2022-07-09T05:35:06;6.10;;;5.55;;
72676;SDS011;60755;51.374;10.662;2022-07-09T05:37:39;6.68;;;6.05;;
72676;SDS011;60755;51.374;10.662;2022-07-09T05:40:06;6.00;;;5.50;;
72676;SDS011;60755;51.374;10.662;2022-07-09T05:42:33;8.40;;;5.93;;
72676;SDS011;60755;51.374;10.662;2022-07-09T05:45:00;6.22;;;5.47;;
72676;SDS011;60755;51.374;10.662;2022-07-09T05:47:26;6.78;;;5.18;;
72676;SDS011;60755;51.374;10.662;2022-07-09T05:49:53;7.65;;;5.78;;
72676;SDS011;60755;51.374;10.662;2022-07-09T05:52:19;6.60;;;6.00;;
72676;SDS011;60755;51.374;10.662;2022-07-09T05:54:47;6.32;;;5.65;;
72676;SDS011;60755;51.374;10.662;2022-07-09T05:57:14;6.60;;;5.90;;
72676;SDS011;60755;51.374;10.662;2022-07-09T05:59:40;8.73;;;5.25;;
72676;SDS011;60755;51.374;10.662;2022-07-09T06:02:07;9.23;;;5.95;;
72676;SDS011;60755;51.374;10.662;2022-07-09T06:04:33;5.43;;;5.03;;
72676;SDS011;60755;51.374;10.662;2022-07-09T06:06:59;8.38;;;5.38;;
72676;SDS011;60755;51.374;10.662;2022-07-09T06:09:26;6.00;;;5.43;;
72676;SDS011;60755;51.374;10.662;2022-07-09T06:11:53;6.95;;;5.00;;
72676;SDS011;60755;51.374;10.662;2022-07-09T06:14:20;5.68;;;5.10;;
72676;SDS011;60755;51.374;10.662;2022-07-09T06:16:46;6.45;;;5.85;;
72676;SDS011;60755;51.374;10.662;2022-07-09T06:19:13;7.53;;;5.10;;
72676;SDS011;60755;51.374;10.662;2022-07-09T06:21:39;5.20;;;4.80;;
72676;SDS011;60755;51.374;10.662;2022-07-09T06:24:06;6.78;;;5.43;;
72676;SDS011;60755;51.374;10.662;2022-07-09T06:26:33;5.95;;;5.45;;
72676;SDS011;60755;51.374;10.662;2022-07-09T06:29:00;9.77;;;5.35;;
72676;SDS011;60755;51.374;10.662;2022-07-09T06:31:27;7.80;;;5.93;;
72676;SDS011;60755;51.374;10.662;2022-07-09T06:33:53;6.43;;;5.68;;
72676;SDS011;60755;51.374;10.662;2022-07-09T06:36:19;6.22;;;5.72;;
72676;SDS011;60755;51.374;10.662;2022-07-09T06:38:46;6.38;;;5.78;;
72676;SDS011;60755;51.374;10.662;2022-07-09T06:41:31;7.13;;;6.50;;
72676;SDS011;60755;51.374;10.662;2022-07-09T06:43:58;7.22;;;6.63;;
72676;SDS011;60755;51.374;10.662;2022-07-09T06:46:26;9.45;;;6.85;;
72676;SDS011;60755;51.374;10.662;2022-07-09T06:48:52;8.60;;;6.93;;
72676;SDS011;60755;51.374;10.662;2022-07-09T06:51:18;8.98;;;7.10;;
72676;SDS011;60755;51.374;10.662;2022-07-09T06:53:45;6.70;;;6.15;;
72676;SDS011;60755;51.374;10.662;2022-07-09T06:56:11;8.98;;;8.05;;
72676;SDS011;60755;51.374;10.662;2022-07-09T06:58:37;7.43;;;6.68;;
72676;SDS011;60755;51.374;10.662;2022-07-09T07:01:04;7.32;;;6.72;;
72676;SDS011;60755;51.374;10.662;2022-07-09T07:03:31;6.97;;;6.22;;
72676;SDS011;60755;51.374;10.662;2022-07-09T07:05:58;8.25;;;7.55;;
72676;SDS011;60755;51.374;10.662;2022-07-09T07:08:24;8.20;;;7.32;;
72676;SDS011;60755;51.374;10.662;2022-07-09T07:10:50;8.52;;;7.43;;
72676;SDS011;60755;51.374;10.662;2022-07-09T07:13:17;9.43;;;8.52;;
72676;SDS011;60755;51.374;10.662;2022-07-09T07:15:43;10.30;;;9.30;;
72676;SDS011;60755;51.374;10.662;2022-07-09T07:18:14;11.27;;;9.30;;
72676;SDS011;60755;51.374;10.662;2022-07-09T07:20:41;12.55;;;9.20;;
72676;SDS011;60755;51.374;10.662;2022-07-09T07:23:08;11.15;;;9.73;;
72676;SDS011;60755;51.374;10.662;2022-07-09T07:25:34;10.68;;;9.57;;
72676;SDS011;60755;51.374;10.662;2022-07-09T07:28:01;11.55;;;9.38;;
72676;SDS011;60755;51.374;10.662;2022-07-09T07:30:28;9.60;;;8.57;;
72676;SDS011;60755;51.374;10.662;2022-07-09T07:32:57;10.98;;;9.32;;
72676;SDS011;60755;51.374;10.662;2022-07-09T07:35:24;9.95;;;8.95;;
72676;SDS011;60755;51.374;10.662;2022-07-09T07:37:52;9.70;;;8.80;;
72676;SDS011;60755;51.374;10.662;2022-07-09T07:40:18;11.48;;;9.15;;
72676;SDS011;60755;51.374;10.662;2022-07-09T07:42:45;10.80;;;9.27;;
72676;SDS011;60755;51.374;10.662;2022-07-09T07:45:11;12.75;;;9.38;;
72676;SDS011;60755;51.374;10.662;2022-07-09T07:47:37;10.25;;;8.40;;
72676;SDS011;60755;51.374;10.662;2022-07-09T07:50:05;10.48;;;8.40;;
72676;SDS011;60755;51.374;10.662;2022-07-09T07:52:32;8.70;;;8.00;;
72676;SDS011;60755;51.374;10.662;2022-07-09T07:55:00;9.82;;;7.95;;
72676;SDS011;60755;51.374;10.662;2022-07-09T07:57:27;9.32;;;7.35;;
72676;SDS011;60755;51.374;10.662;2022-07-09T07:59:53;9.82;;;7.35;;
72676;SDS011;60755;51.374;10.662;2022-07-09T08:02:20;7.88;;;7.10;;
72676;SDS011;60755;51.374;10.662;2022-07-09T08:04:46;7.68;;;6.93;;
72676;SDS011;60755;51.374;10.662;2022-07-09T08:07:13;7.97;;;7.28;;
72676;SDS011;60755;51.374;10.662;2022-07-09T08:09:39;6.95;;;6.43;;
72676;SDS011;60755;51.374;10.662;2022-07-09T08:12:08;8.23;;;6.18;;
72676;SDS011;60755;51.374;10.662;2022-07-09T08:14:35;7.18;;;6.57;;
72676;SDS011;60755;51.374;10.662;2022-07-09T08:17:01;7.93;;;6.35;;
72676;SDS011;60755;51.374;10.662;2022-07-09T08:19:28;6.53;;;5.82;;
72676;SDS011;60755;51.374;10.662;2022-07-09T08:21:54;6.97;;;6.38;;
72676;SDS011;60755;51.374;10.662;2022-07-09T08:24:21;7.68;;;6.40;;
72676;SDS011;60755;51.374;10.662;2022-07-09T08:26:47;6.72;;;6.22;;
72676;SDS011;60755;51.374;10.662;2022-07-09T08:29:15;6.90;;;6.30;;
72676;SDS011;60755;51.374;10.662;2022-07-09T08:31:42;7.55;;;6.72;;
72676;SDS011;60755;51.374;10.662;2022-07-09T08:34:08;7.07;;;6.00;;
72676;SDS011;60755;51.374;10.662;2022-07-09T08:36:34;6.78;;;6.18;;
72676;SDS011;60755;51.374;10.662;2022-07-09T08:39:01;5.82;;;5.32;;
72676;SDS011;60755;51.374;10.662;2022-07-09T08:41:27;6.10;;;5.57;;
72676;SDS011;60755;51.374;10.662;2022-07-09T08:43:54;7.65;;;6.00;;
72676;SDS011;60755;51.374;10.662;2022-07-09T08:46:22;6.60;;;5.95;;
72676;SDS011;60755;51.374;10.662;2022-07-09T08:48:48;5.82;;;5.30;;
72676;SDS011;60755;51.374;10.662;2022-07-09T08:51:16;5.63;;;5.20;;
72676;SDS011;60755;51.374;10.662;2022-07-09T08:53:44;6.63;;;5.22;;
72676;SDS011;60755;51.374;10.662;2022-07-09T08:56:11;5.82;;;5.30;;
72676;SDS011;60755;51.374;10.662;2022-07-09T08:58:37;5.88;;;5.35;;
72676;SDS011;60755;51.374;10.662;2022-07-09T09:01:05;7.82;;;5.57;;
72676;SDS011;60755;51.374;10.662;2022-07-09T09:03:32;4.80;;;4.40;;
72676;SDS011;60755;51.374;10.662;2022-07-09T09:06:00;6.28;;;4.85;;
72676;SDS011;60755;51.374;10.662;2022-07-09T09:08:32;4.55;;;4.15;;
72676;SDS011;60755;51.374;10.662;2022-07-09T09:10:59;5.10;;;4.65;;
72676;SDS011;60755;51.374;10.662;2022-07-09T09:13:26;5.35;;;4.57;;
72676;SDS011;60755;51.374;10.662;2022-07-09T09:16:01;4.80;;;4.47;;
72676;SDS011;60755;51.374;10.662;2022-07-09T09:18:28;6.63;;;6.00;;
72676;SDS011;60755;51.374;10.662;2022-07-09T09:20:59;6.00;;;4.70;;
72676;SDS011;60755;51.374;10.662;2022-07-09T09:23:28;6.22;;;4.85;;
72676;SDS011;60755;51.374;10.662;2022-07-09T09:25:54;5.63;;;5.13;;
72676;SDS011;60755;51.374;10.662;2022-07-09T09:28:21;5.00;;;4.70;;
72676;SDS011;60755;51.374;10.662;2022-07-09T09:30:47;4.50;;;4.20;;
72676;SDS011;60755;51.374;10.662;2022-07-09T09:33:14;4.97;;;3.92;;
72676;SDS011;60755;51.374;10.662;2022-07-09T09:35:44;3.38;;;3.03;;
72676;SDS011;60755;51.374;10.662;2022-07-09T09:38:12;3.38;;;2.85;;
72676;SDS011;60755;51.374;10.662;2022-07-09T09:40:44;2.72;;;2.53;;
72676;SDS011;60755;51.374;10.662;2022-07-09T09:43:11;3.60;;;3.30;;
72676;SDS011;60755;51.374;10.662;2022-07-09T09:45:40;2.95;;;2.75;;
72676;SDS011;60755;51.374;10.662;2022-07-09T09:48:11;3.30;;;2.97;;
72676;SDS011;60755;51.374;10.662;2022-07-09T09:50:39;3.50;;;3.20;;
72676;SDS011;60755;51.374;10.662;2022-07-09T09:53:05;3.47;;;3.28;;
72676;SDS011;60755;51.374;10.662;2022-07-09T09:55:33;3.60;;;3.30;;
72676;SDS011;60755;51.374;10.662;2022-07-09T09:58:00;3.75;;;3.33;;
72676;SDS011;60755;51.374;10.662;2022-07-09T10:00:27;3.47;;;3.28;;
72676;SDS011;60755;51.374;10.662;2022-07-09T10:02:54;3.47;;;3.28;;
72676;SDS011;60755;51.374;10.662;2022-07-09T10:05:21;3.70;;;3.40;;
72676;SDS011;60755;51.374;10.662;2022-07-09T10:07:47;3.72;;;3.53;;
72676;SDS011;60755;51.374;10.662;2022-07-09T10:10:17;4.53;;;3.80;;
72676;SDS011;60755;51.374;10.662;2022-07-09T10:12:47;3.50;;;3.30;;
72676;SDS011;60755;51.374;10.662;2022-07-09T10:15:20;4.28;;;3.22;;
72676;SDS011;60755;51.374;10.662;2022-07-09T10:17:48;3.17;;;2.97;;
72676;SDS011;60755;51.374;10.662;2022-07-09T10:20:14;2.88;;;2.58;;
72676;SDS011;60755;51.374;10.662;2022-07-09T10:22:41;2.85;;;2.75;;
72676;SDS011;60755;51.374;10.662;2022-07-09T10:25:10;3.00;;;2.90;;
72676;SDS011;60755;51.374;10.662;2022-07-09T10:27:42;3.10;;;2.90;;
72676;SDS011;60755;51.374;10.662;2022-07-09T10:30:22;3.28;;;3.08;;
72676;SDS011;60755;51.374;10.662;2022-07-09T10:33:00;9.30;;;2.97;;
72676;SDS011;60755;51.374;10.662;2022-07-09T10:35:28;3.40;;;3.10;;
72676;SDS011;60755;51.374;10.662;2022-07-09T10:37:54;3.72;;;3.15;;
72676;SDS011;60755;51.374;10.662;2022-07-09T10:40:22;3.05;;;2.85;;
72676;SDS011;60755;51.374;10.662;2022-07-09T10:42:57;3.22;;;2.90;;
72676;SDS011;60755;51.374;10.662;2022-07-09T10:45:26;2.85;;;2.75;;
72676;SDS011;60755;51.374;10.662;2022-07-09T10:47:56;3.00;;;2.80;;
72676;SDS011;60755;51.374;10.662;2022-07-09T10:50:25;3.70;;;2.58;;
72676;SDS011;60755;51.374;10.662;2022-07-09T10:52:53;2.67;;;2.58;;
72676;SDS011;60755;51.374;10.662;2022-07-09T10:55:20;2.65;;;2.45;;
72676;SDS011;60755;51.374;10.662;2022-07-09T10:57:48;2.60;;;2.50;;
72676;SDS011;60755;51.374;10.662;2022-07-09T11:00:15;2.60;;;2.42;;
72676;SDS011;60755;51.374;10.662;2022-07-09T11:02:56;3.10;;;2.50;;
72676;SDS011;60755;51.374;10.662;2022-07-09T11:05:24;2.20;;;2.20;;
72676;SDS011;60755;51.374;10.662;2022-07-09T11:07:58;2.63;;;2.42;;
72676;SDS011;60755;51.374;10.662;2022-07-09T11:10:29;5.00;;;2.58;;
72676;SDS011;60755;51.374;10.662;2022-07-09T11:12:57;2.67;;;2.50;;
72676;SDS011;60755;51.374;10.662;2022-07-09T11:15:26;2.95;;;2.47;;
72676;SDS011;60755;51.374;10.662;2022-07-09T11:17:56;2.72;;;2.53;;
72676;SDS011;60755;51.374;10.662;2022-07-09T11:20:23;2.70;;;2.60;;
72676;SDS011;60755;51.374;10.662;2022-07-09T11:22:50;2.50;;;2.40;;
72676;SDS011;60755;51.374;10.662;2022-07-09T11:25:16;2.80;;;2.45;;
72676;SDS011;60755;51.374;10.662;2022-07-09T11:27:43;2.40;;;2.30;;
72676;SDS011;60755;51.374;10.662;2022-07-09T11:30:13;2.60;;;2.50;;
72676;SDS011;60755;51.374;10.662;2022-07-09T11:32:40;2.78;;;2.60;;
72676;SDS011;60755;51.374;10.662;2022-07-09T11:35:08;2.80;;;2.60;;
72676;SDS011;60755;51.374;10.662;2022-07-09T11:37:36;2.60;;;2.50;;
72676;SDS011;60755;51.374;10.662;2022-07-09T11:40:02;2.53;;;2.42;;
72676;SDS011;60755;51.374;10.662;2022-07-09T11:42:29;2.40;;;2.30;;
72676;SDS011;60755;51.374;10.662;2022-07-09T11:44:57;2.45;;;2.25;;
72676;SDS011;60755;51.374;10.662;2022-07-09T11:47:31;2.60;;;2.50;;
72676;SDS011;60755;51.374;10.662;2022-07-09T11:50:04;2.40;;;2.30;;
72676;SDS011;60755;51.374;10.662;2022-07-09T11:52:33;2.53;;;2.40;;
72676;SDS011;60755;51.374;10.662;2022-07-09T11:55:00;2.33;;;2.30;;
72676;SDS011;60755;51.374;10.662;2022-07-09T11:57:28;2.33;;;2.22;;
72676;SDS011;60755;51.374;10.662;2022-07-09T11:59:55;2.20;;;2.10;;
72676;SDS011;60755;51.374;10.662;2022-07-09T12:02:23;5.82;;;1.98;;
72676;SDS011;60755;51.374;10.662;2022-07-09T12:04:50;2.50;;;2.30;;
72676;SDS011;60755;51.374;10.662;2022-07-09T12:07:16;2.03;;;1.92;;
72676;SDS011;60755;51.374;10.662;2022-07-09T12:09:44;1.80;;;1.70;;
72676;SDS011;60755;51.374;10.662;2022-07-09T12:12:10;1.73;;;1.73;;
72676;SDS011;60755;51.374;10.662;2022-07-09T12:14:37;1.77;;;1.75;;
72676;SDS011;60755;51.374;10.662;2022-07-09T12:17:03;1.90;;;1.90;;
72676;SDS011;60755;51.374;10.662;2022-07-09T12:19:30;2.53;;;2.33;;
72676;SDS011;60755;51.374;10.662;2022-07-09T12:21:56;2.20;;;2.10;;
72676;SDS011;60755;51.374;10.662;2022-07-09T12:24:24;1.95;;;1.85;;
72676;SDS011;60755;51.374;10.662;2022-07-09T12:26:52;2.03;;;1.92;;
72676;SDS011;60755;51.374;10.662;2022-07-09T12:29:18;1.85;;;1.75;;
72676;SDS011;60755;51.374;10.662;2022-07-09T12:31:45;2.05;;;2.03;;
72676;SDS011;60755;51.374;10.662;2022-07-09T12:34:11;2.55;;;2.35;;
72676;SDS011;60755;51.374;10.662;2022-07-09T12:36:37;2.30;;;2.20;;
72676;SDS011;60755;51.374;10.662;2022-07-09T12:39:06;2.63;;;2.47;;
72676;SDS011;60755;51.374;10.662;2022-07-09T12:41:32;2.30;;;2.20;;
72676;SDS011;60755;51.374;10.662;2022-07-09T12:44:00;2.60;;;2.40;;
72676;SDS011;60755;51.374;10.662;2022-07-09T12:46:26;2.50;;;2.40;;
72676;SDS011;60755;51.374;10.662;2022-07-09T12:48:53;3.00;;;2.80;;
72676;SDS011;60755;51.374;10.662;2022-07-09T12:51:19;2.90;;;2.70;;
72676;SDS011;60755;51.374;10.662;2022-07-09T12:53:45;3.10;;;2.80;;
72676;SDS011;60755;51.374;10.662;2022-07-09T12:56:12;2.60;;;2.50;;
72676;SDS011;60755;51.374;10.662;2022-07-09T12:58:39;3.47;;;2.80;;
72676;SDS011;60755;51.374;10.662;2022-07-09T13:01:06;3.20;;;3.00;;
72676;SDS011;60755;51.374;10.662;2022-07-09T13:03:33;2.90;;;2.70;;
72676;SDS011;60755;51.374;10.662;2022-07-09T13:06:00;2.83;;;2.60;;
72676;SDS011;60755;51.374;10.662;2022-07-09T13:08:26;3.05;;;2.67;;
72676;SDS011;60755;51.374;10.662;2022-07-09T13:10:52;3.78;;;2.63;;
72676;SDS011;60755;51.374;10.662;2022-07-09T13:13:19;2.83;;;2.72;;
72676;SDS011;60755;51.374;10.662;2022-07-09T13:15:45;2.60;;;2.50;;
72676;SDS011;60755;51.374;10.662;2022-07-09T13:18:14;2.80;;;2.53;;
72676;SDS011;60755;51.374;10.662;2022-07-09T13:20:42;3.08;;;2.78;;
72676;SDS011;60755;51.374;10.662;2022-07-09T13:23:08;2.65;;;2.42;;
72676;SDS011;60755;51.374;10.662;2022-07-09T13:25:35;2.35;;;2.25;;
72676;SDS011;60755;51.374;10.662;2022-07-09T13:28:01;3.08;;;2.83;;
72676;SDS011;60755;51.374;10.662;2022-07-09T13:30:28;2.40;;;2.30;;
72676;SDS011;60755;51.374;10.662;2022-07-09T13:32:54;2.70;;;2.50;;
72676;SDS011;60755;51.374;10.662;2022-07-09T13:35:22;4.55;;;2.35;;
72676;SDS011;60755;51.374;10.662;2022-07-09T13:37:49;4.63;;;2.17;;
72676;SDS011;60755;51.374;10.662;2022-07-09T13:40:15;2.50;;;2.30;;
72676;SDS011;60755;51.374;10.662;2022-07-09T13:42:43;2.38;;;2.28;;
72676;SDS011;60755;51.374;10.662;2022-07-09T13:45:09;2.10;;;2.10;;
72676;SDS011;60755;51.374;10.662;2022-07-09T13:47:36;2.38;;;2.20;;
72676;SDS011;60755;51.374;10.662;2022-07-09T13:50:03;2.53;;;2.10;;
72676;SDS011;60755;51.374;10.662;2022-07-09T13:52:31;2.53;;;2.38;;
72676;SDS011;60755;51.374;10.662;2022-07-09T13:54:57;2.20;;;2.10;;
72676;SDS011;60755;51.374;10.662;2022-07-09T13:57:24;2.28;;;2.15;;
72676;SDS011;60755;51.374;10.662;2022-07-09T13:59:50;2.08;;;1.98;;
72676;SDS011;60755;51.374;10.662;2022-07-09T14:02:17;3.33;;;1.92;;
72676;SDS011;60755;51.374;10.662;2022-07-09T14:04:44;2.15;;;1.90;;
72676;SDS011;60755;51.374;10.662;2022-07-09T14:07:10;1.98;;;1.88;;
72676;SDS011;60755;51.374;10.662;2022-07-09T14:09:38;1.88;;;1.80;;
72676;SDS011;60755;51.374;10.662;2022-07-09T14:12:05;1.90;;;1.90;;
72676;SDS011;60755;51.374;10.662;2022-07-09T14:14:32;4.47;;;2.10;;
72676;SDS011;60755;51.374;10.662;2022-07-09T14:16:59;2.35;;;1.70;;
72676;SDS011;60755;51.374;10.662;2022-07-09T14:19:26;1.98;;;1.88;;
72676;SDS011;60755;51.374;10.662;2022-07-09T14:21:52;1.92;;;1.90;;
72676;SDS011;60755;51.374;10.662;2022-07-09T14:24:18;1.83;;;1.65;;
72676;SDS011;60755;51.374;10.662;2022-07-09T14:26:46;1.98;;;1.88;;
72676;SDS011;60755;51.374;10.662;2022-07-09T14:29:13;1.70;;;1.67;;
72676;SDS011;60755;51.374;10.662;2022-07-09T14:31:40;2.60;;;2.25;;
72676;SDS011;60755;51.374;10.662;2022-07-09T14:34:06;1.98;;;1.90;;